Atlantis — PCDT — position and weather

sailwx.info

Track history (hours):
 
Tides and Currents Weather Stations Pressure Air Temp Water Temp Dewpoint Dewpoint Depression Visibility Wind Speed Wind Dir Waves Ship Positions

Atlantis (Netherlands)

Ship's website: http://www.tallship-company.com/artemis/gb_atlantis.htm

Last reported at 2018-Jun-16 17:28 UTC. Time now 2018-Jun-21 20:08 UTC.
Position N 54°37' E 010°14'.

Length 40 m; draft 4.5 m.

Type: Sailing vessel. MMSI: 246253000.

Date/timePositionNaut miles runAvg speedWind from/ knotsBaromVisibWave heightAir tempDewpointWater temp
2018-Jun-16 17:28N 54°37' E 010°14'3 6.2
2018-Jun-16 17:00N 54°39' E 010°13'3 5.8
2018-Jun-16 16:30N 54°42' E 010°14'3 6.0
2018-Jun-16 16:00N 54°45' E 010°14'3 6.1
2018-Jun-16 15:30N 54°48' E 010°13'4 6.8
2018-Jun-16 14:53N 54°53' E 010°13'6 0.7
2018-Jun-16 05:14N 54°59' E 010°15'4 3.4
2018-Jun-16 04:02N 55°02' E 010°18'0 6.6
2018-Jun-16 03:59N 55°02' E 010°19'3 6.5
2018-Jun-16 03:27N 55°02' E 010°25'3 6.5
2018-Jun-16 03:00N 55°01' E 010°30'3 5.8
2018-Jun-16 02:30N 55°02' E 010°35'2 3.1
2018-Jun-16 02:00N 55°03' E 010°37'0 0.0
2018-Jun-16 01:30N 55°03' E 010°37'0 0.0
2018-Jun-16 00:57N 55°03' E 010°37'0 0.0
2018-Jun-16 00:03N 55°03' E 010°37'0 0.0
2018-Jun-16 00:00N 55°03' E 010°37'0 0.0
2018-Jun-15 23:30N 55°03' E 010°37'0 0.0
2018-Jun-15 23:00N 55°03' E 010°37'0 0.0
2018-Jun-15 22:30N 55°03' E 010°37'0 0.0
2018-Jun-15 22:00N 55°03' E 010°37'0 0.0
2018-Jun-15 21:30N 55°03' E 010°37'0 0.0
2018-Jun-15 21:00N 55°03' E 010°37'0 0.0
2018-Jun-15 16:03N 55°03' E 010°37'0 0.0
2018-Jun-15 14:51N 55°03' E 010°37'0 0.0
2018-Jun-15 13:33N 55°03' E 010°37'0 0.0
2018-Jun-15 13:15N 55°03' E 010°37'0 0.0
2018-Jun-15 12:57N 55°03' E 010°37'0 0.0
2018-Jun-15 12:30N 55°03' E 010°37'1 2.7
2018-Jun-15 12:00N 55°03' E 010°39'2 4.9
2018-Jun-15 11:30N 55°01' E 010°42'2 4.7
2018-Jun-15 11:01N 55°03' E 010°46'3 5.9
2018-Jun-15 10:31N 55°05' E 010°48'3 6.4
2018-Jun-15 10:01N 55°08' E 010°50'3 6.2
2018-Jun-15 09:31N 55°11' E 010°51'  
2018-Jun-13 00:30N 56°08' E 012°30'3 5.9
2018-Jun-12 23:58N 56°06' E 012°34'3 5.6
2018-Jun-12 23:30N 56°05' E 012°38'3 5.5
2018-Jun-12 23:00N 56°02' E 012°40'3 5.4
2018-Jun-12 22:30N 55°60' E 012°42'3 5.5
2018-Jun-12 22:00N 55°57' E 012°43'3 5.7
2018-Jun-12 21:30N 55°54' E 012°44'3 6.2
2018-Jun-12 21:00N 55°51' E 012°43'3 5.9
2018-Jun-12 20:30N 55°48' E 012°43'3 6.1
2018-Jun-12 20:00N 55°46' E 012°41'3 6.5
2018-Jun-12 19:30N 55°43' E 012°38'2 4.0
2018-Jun-12 19:00N 55°41' E 012°36'0 0.0
2018-Jun-12 18:28N 55°41' E 012°36'0 0.0
2018-Jun-12 17:58N 55°41' E 012°36'0 0.0
2018-Jun-12 17:28N 55°41' E 012°36'0 0.0
2018-Jun-12 16:58N 55°41' E 012°36'0 0.0
2018-Jun-12 16:28N 55°41' E 012°36'0 0.0
2018-Jun-12 15:58N 55°41' E 012°36'0 0.0
2018-Jun-12 15:28N 55°41' E 012°36'0 0.0
2018-Jun-12 14:58N 55°41' E 012°36'0 0.0
2018-Jun-12 14:28N 55°41' E 012°36'0 0.0
2018-Jun-12 13:58N 55°41' E 012°36'0 0.0
2018-Jun-12 13:28N 55°41' E 012°36'0 0.0
2018-Jun-12 12:58N 55°41' E 012°36'0 0.0
2018-Jun-12 12:28N 55°41' E 012°36'0 0.0
2018-Jun-12 11:58N 55°41' E 012°36'0 0.0
2018-Jun-12 11:28N 55°41' E 012°36'0 0.0
2018-Jun-12 10:58N 55°41' E 012°36'0 0.0
2018-Jun-12 10:28N 55°41' E 012°36'0 0.0
2018-Jun-12 09:58N 55°41' E 012°36'0 0.0
2018-Jun-12 09:28N 55°41' E 012°36'0 0.0
2018-Jun-12 08:58N 55°41' E 012°36'0 0.0
2018-Jun-12 08:28N 55°41' E 012°36'0 0.0
2018-Jun-12 07:58N 55°41' E 012°36'0 0.0
2018-Jun-12 07:28N 55°41' E 012°36'0 0.0
2018-Jun-12 06:58N 55°41' E 012°36'0 0.0
2018-Jun-12 06:28N 55°41' E 012°36'0 0.0
2018-Jun-12 05:58N 55°41' E 012°36'0 0.0
2018-Jun-12 05:28N 55°41' E 012°36'0 0.0
2018-Jun-12 04:58N 55°41' E 012°36'0 0.0
2018-Jun-12 04:28N 55°41' E 012°36'0 0.0
2018-Jun-12 03:58N 55°41' E 012°36'0 0.0
2018-Jun-12 03:28N 55°41' E 012°36'0 0.0
2018-Jun-12 02:58N 55°41' E 012°36'0 0.0
2018-Jun-12 02:28N 55°41' E 012°36'0 0.0
2018-Jun-12 01:58N 55°41' E 012°36'0 0.0
2018-Jun-12 01:28N 55°41' E 012°36'0 0.0
2018-Jun-12 00:58N 55°41' E 012°36'0 0.0
2018-Jun-12 00:28N 55°41' E 012°36'0 0.0
2018-Jun-11 23:58N 55°41' E 012°36'0 0.0
2018-Jun-11 23:28N 55°41' E 012°36'0 0.0
2018-Jun-11 22:58N 55°41' E 012°36'0 0.0
2018-Jun-11 22:28N 55°41' E 012°36'0 0.0
2018-Jun-11 21:58N 55°41' E 012°36'0 0.0
2018-Jun-11 21:28N 55°41' E 012°36'0 0.0
2018-Jun-11 20:58N 55°41' E 012°36'0 0.0
2018-Jun-11 20:28N 55°41' E 012°36'0 0.0
2018-Jun-11 19:58N 55°41' E 012°36'0 0.0
2018-Jun-11 19:28N 55°41' E 012°36'0 0.0
2018-Jun-11 18:58N 55°41' E 012°36'0 0.0
2018-Jun-11 18:28N 55°41' E 012°36'0 0.0
2018-Jun-11 17:58N 55°41' E 012°36'0 0.0
2018-Jun-11 17:28N 55°41' E 012°36'0 0.0
2018-Jun-11 16:58N 55°41' E 012°36'0 0.0
2018-Jun-11 16:28N 55°41' E 012°36'0 0.0
2018-Jun-11 15:58N 55°41' E 012°36'0 0.0
2018-Jun-11 15:28N 55°41' E 012°36'0 0.0
2018-Jun-11 14:58N 55°41' E 012°36'0 0.0
2018-Jun-11 14:28N 55°41' E 012°36'0 0.0
2018-Jun-11 13:58N 55°41' E 012°36'0 0.0
2018-Jun-11 13:29N 55°41' E 012°36'1 1.4
2018-Jun-11 13:00N 55°42' E 012°36'2 4.8
2018-Jun-11 12:30N 55°40' E 012°40'3 5.6
2018-Jun-11 12:00N 55°38' E 012°42'2 4.6
2018-Jun-11 11:30N 55°35' E 012°42'2 4.4
2018-Jun-11 11:00N 55°33' E 012°41'3 5.6
2018-Jun-11 10:30N 55°31' E 012°37'3 5.7
2018-Jun-11 09:59N 55°30' E 012°33'3 6.2
2018-Jun-11 09:30N 55°29' E 012°28'3 5.8
2018-Jun-11 09:00N 55°29' E 012°23'3 5.8
2018-Jun-11 08:29N 55°28' E 012°17'3 5.6
2018-Jun-11 07:59N 55°27' E 012°13'1 0.2
2018-Jun-11 03:46N 55°27' E 012°12'0 0.0
2018-Jun-11 03:16N 55°27' E 012°12'0 0.0
2018-Jun-11 01:10N 55°27' E 012°12'0 0.0
2018-Jun-11 00:52N 55°27' E 012°12'0 0.0
2018-Jun-11 00:01N 55°27' E 012°12'0 0.1
2018-Jun-10 23:58N 55°27' E 012°12'0 0.0
2018-Jun-10 21:38N 55°27' E 012°12'0 0.4
2018-Jun-10 21:28N 55°27' E 012°11'3 6.0
2018-Jun-10 21:00N 55°27' E 012°16'3 6.9
2018-Jun-10 20:30N 55°25' E 012°22'3 6.7
2018-Jun-10 20:00N 55°24' E 012°27'3 6.8
2018-Jun-10 19:30N 55°20' E 012°29'14 7.1
2018-Jun-10 17:31N 55°07' E 012°33'0 7.2
2018-Jun-10 17:30N 55°07' E 012°33'10 2.2
2018-Jun-10 13:01N 54°57' E 012°28'0 0.3
2018-Jun-10 12:56N 54°57' E 012°28'0 0.1
2018-Jun-10 12:30N 54°57' E 012°28'0 0.0
2018-Jun-10 12:00N 54°57' E 012°28'0 0.0
2018-Jun-10 11:30N 54°57' E 012°28'0 0.0
2018-Jun-10 10:59N 54°57' E 012°28'0 0.0
2018-Jun-10 10:30N 54°57' E 012°28'0 0.0
2018-Jun-10 10:00N 54°57' E 012°28'0 0.0
2018-Jun-10 09:30N 54°57' E 012°28'0 0.0
2018-Jun-10 09:00N 54°57' E 012°28'0 0.0
2018-Jun-10 08:29N 54°57' E 012°28'0 0.0
2018-Jun-10 07:56N 54°57' E 012°28'0 0.0
2018-Jun-10 07:21N 54°57' E 012°28'0 0.0
2018-Jun-10 07:00N 54°57' E 012°28'0 0.0
2018-Jun-10 06:30N 54°57' E 012°28'0 0.0
2018-Jun-10 06:00N 54°57' E 012°28'0 0.0
2018-Jun-10 05:30N 54°57' E 012°28'0 0.0
2018-Jun-10 05:00N 54°57' E 012°28'0 0.0
2018-Jun-10 04:29N 54°57' E 012°28'0 0.0
2018-Jun-10 04:00N 54°57' E 012°28'0 0.0
2018-Jun-10 03:29N 54°57' E 012°28'0 0.0
2018-Jun-10 02:58N 54°57' E 012°28'0 0.0
2018-Jun-10 02:30N 54°57' E 012°28'0 0.0
2018-Jun-10 01:59N 54°57' E 012°28'0 0.0
2018-Jun-10 01:30N 54°57' E 012°28'0 0.0
2018-Jun-10 01:00N 54°57' E 012°28'0 0.0
2018-Jun-10 00:28N 54°57' E 012°28'0 0.0
2018-Jun-10 00:00N 54°57' E 012°28'2 4.7
2018-Jun-09 23:30N 54°55' E 012°27'3 6.9
2018-Jun-09 23:00N 54°51' E 012°26'3 6.9
2018-Jun-09 22:30N 54°48' E 012°24'3 6.9
2018-Jun-09 22:00N 54°45' E 012°23'3 6.9
2018-Jun-09 21:30N 54°41' E 012°21'3 6.7
2018-Jun-09 21:01N 54°38' E 012°20'4 7.6
2018-Jun-09 20:30N 54°34' E 012°18'4 7.1
2018-Jun-09 20:00N 54°31' E 012°17'4 7.0
2018-Jun-09 19:30N 54°28' E 012°14'3 7.0
2018-Jun-09 19:00N 54°25' E 012°11'3 6.4
2018-Jun-09 18:30N 54°24' E 012°06'4 6.6
2018-Jun-09 17:50N 54°24' E 011°58'2 6.3
2018-Jun-09 17:30N 54°24' E 011°54'3 6.2
2018-Jun-09 17:00N 54°24' E 011°49'3 6.6
2018-Jun-09 16:30N 54°25' E 011°43'3 6.9
2018-Jun-09 16:00N 54°26' E 011°38'7 6.8
2018-Jun-09 15:00N 54°29' E 011°28'3 6.7
2018-Jun-09 14:31N 54°31' E 011°23'3 6.9
2018-Jun-09 14:00N 54°32' E 011°18'3 6.9
2018-Jun-09 13:30N 54°33' E 011°12'4 7.5
2018-Jun-09 13:00N 54°34' E 011°05'4 7.2
2018-Jun-09 12:30N 54°33' E 010°59'3 7.0
2018-Jun-09 12:00N 54°33' E 010°53'4 7.4
2018-Jun-09 11:30N 54°32' E 010°47'4 7.2
2018-Jun-09 11:00N 54°31' E 010°41'3 7.0
2018-Jun-09 10:30N 54°31' E 010°35'4 7.0
2018-Jun-09 10:00N 54°30' E 010°29'4 6.9
2018-Jun-09 09:28N 54°30' E 010°23'3 6.0
2018-Jun-09 09:00N 54°29' E 010°18'4 6.2
2018-Jun-09 08:26N 54°26' E 010°14'4 5.6
2018-Jun-09 07:44N 54°23' E 010°11'1 1.6
2018-Jun-09 07:06N 54°22' E 010°09'0 0.0
2018-Jun-09 06:54N 54°22' E 010°09'0 0.0
2018-Jun-09 06:18N 54°22' E 010°09'0 0.0
2018-Jun-09 04:18N 54°22' E 010°09'0 0.0
2018-Jun-09 04:00N 54°22' E 010°09'0 0.0
2018-Jun-09 03:30N 54°22' E 010°09'0 0.0
2018-Jun-09 02:57N 54°22' E 010°09'0 0.0
2018-Jun-09 02:30N 54°22' E 010°09'0 0.0
2018-Jun-09 02:00N 54°22' E 010°09'0 0.0
2018-Jun-09 01:21N 54°22' E 010°09'0 0.0
2018-Jun-09 00:57N 54°22' E 010°09'0 0.0
2018-Jun-09 00:21N 54°22' E 010°09'0 0.0
2018-Jun-09 00:00N 54°22' E 010°09'0 0.0
2018-Jun-08 23:30N 54°22' E 010°09'0 0.0
2018-Jun-08 22:51N 54°22' E 010°09'0 0.0
2018-Jun-08 22:27N 54°22' E 010°09'0 0.0
2018-Jun-08 09:15N 54°22' E 010°09'0 0.0
2018-Jun-08 04:36N 54°22' E 010°09'0 0.0
2018-Jun-08 04:21N 54°22' E 010°09'0 0.0
2018-Jun-08 04:00N 54°22' E 010°09'0 0.0
2018-Jun-08 03:30N 54°22' E 010°09'0 0.0
2018-Jun-08 03:00N 54°22' E 010°09'0 0.0
2018-Jun-08 02:15N 54°22' E 010°09'0 0.0
2018-Jun-08 01:57N 54°22' E 010°09'0 0.0
2018-Jun-08 00:30N 54°22' E 010°09'0 0.0
2018-Jun-08 00:00N 54°22' E 010°09'0 0.0
2018-Jun-07 23:27N 54°22' E 010°09'0 0.0
2018-Jun-07 22:57N 54°22' E 010°09'0 0.0
2018-Jun-07 22:00N 54°22' E 010°09'  
Track history (hours):
 
Tides and Currents Weather Stations Pressure Air Temp Water Temp Dewpoint Dewpoint Depression Visibility Wind Speed Wind Dir Waves Ship Positions

Atlantis (Netherlands)

Ship's website: http://www.tallship-company.com/artemis/gb_atlantis.htm

Last reported at 2018-Jun-16 17:28 UTC. Time now 2018-Jun-21 20:08 UTC.
Position N 54°37' E 010°14'.

Length 40 m; draft 4.5 m.

Type: Sailing vessel. MMSI: 246253000.

Date/timePositionNaut miles runAvg speedWind from/ knotsBaromVisibWave heightAir tempDewpointWater temp
2018-Jun-16 17:28N 54°37' E 010°14'3 6.2
2018-Jun-16 17:00N 54°39' E 010°13'3 5.8
2018-Jun-16 16:30N 54°42' E 010°14'3 6.0
2018-Jun-16 16:00N 54°45' E 010°14'3 6.1
2018-Jun-16 15:30N 54°48' E 010°13'4 6.8
2018-Jun-16 14:53N 54°53' E 010°13'6 0.7
2018-Jun-16 05:14N 54°59' E 010°15'4 3.4
2018-Jun-16 04:02N 55°02' E 010°18'0 6.6
2018-Jun-16 03:59N 55°02' E 010°19'3 6.5
2018-Jun-16 03:27N 55°02' E 010°25'3 6.5
2018-Jun-16 03:00N 55°01' E 010°30'3 5.8
2018-Jun-16 02:30N 55°02' E 010°35'2 3.1
2018-Jun-16 02:00N 55°03' E 010°37'0 0.0
2018-Jun-16 01:30N 55°03' E 010°37'0 0.0
2018-Jun-16 00:57N 55°03' E 010°37'0 0.0
2018-Jun-16 00:03N 55°03' E 010°37'0 0.0
2018-Jun-16 00:00N 55°03' E 010°37'0 0.0
2018-Jun-15 23:30N 55°03' E 010°37'0 0.0
2018-Jun-15 23:00N 55°03' E 010°37'0 0.0
2018-Jun-15 22:30N 55°03' E 010°37'0 0.0
2018-Jun-15 22:00N 55°03' E 010°37'0 0.0
2018-Jun-15 21:30N 55°03' E 010°37'0 0.0
2018-Jun-15 21:00N 55°03' E 010°37'0 0.0
2018-Jun-15 16:03N 55°03' E 010°37'0 0.0
2018-Jun-15 14:51N 55°03' E 010°37'0 0.0
2018-Jun-15 13:33N 55°03' E 010°37'0 0.0
2018-Jun-15 13:15N 55°03' E 010°37'0 0.0
2018-Jun-15 12:57N 55°03' E 010°37'0 0.0
2018-Jun-15 12:30N 55°03' E 010°37'1 2.7
2018-Jun-15 12:00N 55°03' E 010°39'2 4.9
2018-Jun-15 11:30N 55°01' E 010°42'2 4.7
2018-Jun-15 11:01N 55°03' E 010°46'3 5.9
2018-Jun-15 10:31N 55°05' E 010°48'3 6.4
2018-Jun-15 10:01N 55°08' E 010°50'3 6.2
2018-Jun-15 09:31N 55°11' E 010°51'  
2018-Jun-13 00:30N 56°08' E 012°30'3 5.9
2018-Jun-12 23:58N 56°06' E 012°34'3 5.6
2018-Jun-12 23:30N 56°05' E 012°38'3 5.5
2018-Jun-12 23:00N 56°02' E 012°40'3 5.4
2018-Jun-12 22:30N 55°60' E 012°42'3 5.5
2018-Jun-12 22:00N 55°57' E 012°43'3 5.7
2018-Jun-12 21:30N 55°54' E 012°44'3 6.2
2018-Jun-12 21:00N 55°51' E 012°43'3 5.9
2018-Jun-12 20:30N 55°48' E 012°43'3 6.1
2018-Jun-12 20:00N 55°46' E 012°41'3 6.5
2018-Jun-12 19:30N 55°43' E 012°38'2 4.0
2018-Jun-12 19:00N 55°41' E 012°36'0 0.0
2018-Jun-12 18:28N 55°41' E 012°36'0 0.0
2018-Jun-12 17:58N 55°41' E 012°36'0 0.0
2018-Jun-12 17:28N 55°41' E 012°36'0 0.0
2018-Jun-12 16:58N 55°41' E 012°36'0 0.0
2018-Jun-12 16:28N 55°41' E 012°36'0 0.0
2018-Jun-12 15:58N 55°41' E 012°36'0 0.0
2018-Jun-12 15:28N 55°41' E 012°36'0 0.0
2018-Jun-12 14:58N 55°41' E 012°36'0 0.0
2018-Jun-12 14:28N 55°41' E 012°36'0 0.0
2018-Jun-12 13:58N 55°41' E 012°36'0 0.0
2018-Jun-12 13:28N 55°41' E 012°36'0 0.0
2018-Jun-12 12:58N 55°41' E 012°36'0 0.0
2018-Jun-12 12:28N 55°41' E 012°36'0 0.0
2018-Jun-12 11:58N 55°41' E 012°36'0 0.0
2018-Jun-12 11:28N 55°41' E 012°36'0 0.0
2018-Jun-12 10:58N 55°41' E 012°36'0 0.0
2018-Jun-12 10:28N 55°41' E 012°36'0 0.0
2018-Jun-12 09:58N 55°41' E 012°36'0 0.0
2018-Jun-12 09:28N 55°41' E 012°36'0 0.0
2018-Jun-12 08:58N 55°41' E 012°36'0 0.0
2018-Jun-12 08:28N 55°41' E 012°36'0 0.0
2018-Jun-12 07:58N 55°41' E 012°36'0 0.0
2018-Jun-12 07:28N 55°41' E 012°36'0 0.0
2018-Jun-12 06:58N 55°41' E 012°36'0 0.0
2018-Jun-12 06:28N 55°41' E 012°36'0 0.0
2018-Jun-12 05:58N 55°41' E 012°36'0 0.0
2018-Jun-12 05:28N 55°41' E 012°36'0 0.0
2018-Jun-12 04:58N 55°41' E 012°36'0 0.0
2018-Jun-12 04:28N 55°41' E 012°36'0 0.0
2018-Jun-12 03:58N 55°41' E 012°36'0 0.0
2018-Jun-12 03:28N 55°41' E 012°36'0 0.0
2018-Jun-12 02:58N 55°41' E 012°36'0 0.0
2018-Jun-12 02:28N 55°41' E 012°36'0 0.0
2018-Jun-12 01:58N 55°41' E 012°36'0 0.0
2018-Jun-12 01:28N 55°41' E 012°36'0 0.0
2018-Jun-12 00:58N 55°41' E 012°36'0 0.0
2018-Jun-12 00:28N 55°41' E 012°36'0 0.0
2018-Jun-11 23:58N 55°41' E 012°36'0 0.0
2018-Jun-11 23:28N 55°41' E 012°36'0 0.0
2018-Jun-11 22:58N 55°41' E 012°36'0 0.0
2018-Jun-11 22:28N 55°41' E 012°36'0 0.0
2018-Jun-11 21:58N 55°41' E 012°36'0 0.0
2018-Jun-11 21:28N 55°41' E 012°36'0 0.0
2018-Jun-11 20:58N 55°41' E 012°36'0 0.0
2018-Jun-11 20:28N 55°41' E 012°36'0 0.0
2018-Jun-11 19:58N 55°41' E 012°36'0 0.0
2018-Jun-11 19:28N 55°41' E 012°36'0 0.0
2018-Jun-11 18:58N 55°41' E 012°36'0 0.0
2018-Jun-11 18:28N 55°41' E 012°36'0 0.0
2018-Jun-11 17:58N 55°41' E 012°36'0 0.0
2018-Jun-11 17:28N 55°41' E 012°36'0 0.0
2018-Jun-11 16:58N 55°41' E 012°36'0 0.0
2018-Jun-11 16:28N 55°41' E 012°36'0 0.0
2018-Jun-11 15:58N 55°41' E 012°36'0 0.0
2018-Jun-11 15:28N 55°41' E 012°36'0 0.0
2018-Jun-11 14:58N 55°41' E 012°36'0 0.0
2018-Jun-11 14:28N 55°41' E 012°36'0 0.0
2018-Jun-11 13:58N 55°41' E 012°36'0 0.0
2018-Jun-11 13:29N 55°41' E 012°36'1 1.4
2018-Jun-11 13:00N 55°42' E 012°36'2 4.8
2018-Jun-11 12:30N 55°40' E 012°40'3 5.6
2018-Jun-11 12:00N 55°38' E 012°42'2 4.6
2018-Jun-11 11:30N 55°35' E 012°42'2 4.4
2018-Jun-11 11:00N 55°33' E 012°41'3 5.6
2018-Jun-11 10:30N 55°31' E 012°37'3 5.7
2018-Jun-11 09:59N 55°30' E 012°33'3 6.2
2018-Jun-11 09:30N 55°29' E 012°28'3 5.8
2018-Jun-11 09:00N 55°29' E 012°23'3 5.8
2018-Jun-11 08:29N 55°28' E 012°17'3 5.6
2018-Jun-11 07:59N 55°27' E 012°13'1 0.2
2018-Jun-11 03:46N 55°27' E 012°12'0 0.0
2018-Jun-11 03:16N 55°27' E 012°12'0 0.0
2018-Jun-11 01:10N 55°27' E 012°12'0 0.0
2018-Jun-11 00:52N 55°27' E 012°12'0 0.0
2018-Jun-11 00:01N 55°27' E 012°12'0 0.1
2018-Jun-10 23:58N 55°27' E 012°12'0 0.0
2018-Jun-10 21:38N 55°27' E 012°12'0 0.4
2018-Jun-10 21:28N 55°27' E 012°11'3 6.0
2018-Jun-10 21:00N 55°27' E 012°16'3 6.9
2018-Jun-10 20:30N 55°25' E 012°22'3 6.7
2018-Jun-10 20:00N 55°24' E 012°27'3 6.8
2018-Jun-10 19:30N 55°20' E 012°29'14 7.1
2018-Jun-10 17:31N 55°07' E 012°33'0 7.2
2018-Jun-10 17:30N 55°07' E 012°33'10 2.2
2018-Jun-10 13:01N 54°57' E 012°28'0 0.3
2018-Jun-10 12:56N 54°57' E 012°28'0 0.1
2018-Jun-10 12:30N 54°57' E 012°28'0 0.0
2018-Jun-10 12:00N 54°57' E 012°28'0 0.0
2018-Jun-10 11:30N 54°57' E 012°28'0 0.0
2018-Jun-10 10:59N 54°57' E 012°28'0 0.0
2018-Jun-10 10:30N 54°57' E 012°28'0 0.0
2018-Jun-10 10:00N 54°57' E 012°28'0 0.0
2018-Jun-10 09:30N 54°57' E 012°28'0 0.0
2018-Jun-10 09:00N 54°57' E 012°28'0 0.0
2018-Jun-10 08:29N 54°57' E 012°28'0 0.0
2018-Jun-10 07:56N 54°57' E 012°28'0 0.0
2018-Jun-10 07:21N 54°57' E 012°28'0 0.0
2018-Jun-10 07:00N 54°57' E 012°28'0 0.0
2018-Jun-10 06:30N 54°57' E 012°28'0 0.0
2018-Jun-10 06:00N 54°57' E 012°28'0 0.0
2018-Jun-10 05:30N 54°57' E 012°28'0 0.0
2018-Jun-10 05:00N 54°57' E 012°28'0 0.0
2018-Jun-10 04:29N 54°57' E 012°28'0 0.0
2018-Jun-10 04:00N 54°57' E 012°28'0 0.0
2018-Jun-10 03:29N 54°57' E 012°28'0 0.0
2018-Jun-10 02:58N 54°57' E 012°28'0 0.0
2018-Jun-10 02:30N 54°57' E 012°28'0 0.0
2018-Jun-10 01:59N 54°57' E 012°28'0 0.0
2018-Jun-10 01:30N 54°57' E 012°28'0 0.0
2018-Jun-10 01:00N 54°57' E 012°28'0 0.0
2018-Jun-10 00:28N 54°57' E 012°28'0 0.0
2018-Jun-10 00:00N 54°57' E 012°28'2 4.7
2018-Jun-09 23:30N 54°55' E 012°27'3 6.9
2018-Jun-09 23:00N 54°51' E 012°26'3 6.9
2018-Jun-09 22:30N 54°48' E 012°24'3 6.9
2018-Jun-09 22:00N 54°45' E 012°23'3 6.9
2018-Jun-09 21:30N 54°41' E 012°21'3 6.7
2018-Jun-09 21:01N 54°38' E 012°20'4 7.6
2018-Jun-09 20:30N 54°34' E 012°18'4 7.1
2018-Jun-09 20:00N 54°31' E 012°17'4 7.0
2018-Jun-09 19:30N 54°28' E 012°14'3 7.0
2018-Jun-09 19:00N 54°25' E 012°11'3 6.4
2018-Jun-09 18:30N 54°24' E 012°06'4 6.6
2018-Jun-09 17:50N 54°24' E 011°58'2 6.3
2018-Jun-09 17:30N 54°24' E 011°54'3 6.2
2018-Jun-09 17:00N 54°24' E 011°49'3 6.6
2018-Jun-09 16:30N 54°25' E 011°43'3 6.9
2018-Jun-09 16:00N 54°26' E 011°38'7 6.8
2018-Jun-09 15:00N 54°29' E 011°28'3 6.7
2018-Jun-09 14:31N 54°31' E 011°23'3 6.9
2018-Jun-09 14:00N 54°32' E 011°18'3 6.9
2018-Jun-09 13:30N 54°33' E 011°12'4 7.5
2018-Jun-09 13:00N 54°34' E 011°05'4 7.2
2018-Jun-09 12:30N 54°33' E 010°59'3 7.0
2018-Jun-09 12:00N 54°33' E 010°53'4 7.4
2018-Jun-09 11:30N 54°32' E 010°47'4 7.2
2018-Jun-09 11:00N 54°31' E 010°41'3 7.0
2018-Jun-09 10:30N 54°31' E 010°35'4 7.0
2018-Jun-09 10:00N 54°30' E 010°29'4 6.9
2018-Jun-09 09:28N 54°30' E 010°23'3 6.0
2018-Jun-09 09:00N 54°29' E 010°18'4 6.2
2018-Jun-09 08:26N 54°26' E 010°14'4 5.6
2018-Jun-09 07:44N 54°23' E 010°11'1 1.6
2018-Jun-09 07:06N 54°22' E 010°09'0 0.0
2018-Jun-09 06:54N 54°22' E 010°09'0 0.0
2018-Jun-09 06:18N 54°22' E 010°09'0 0.0
2018-Jun-09 04:18N 54°22' E 010°09'0 0.0
2018-Jun-09 04:00N 54°22' E 010°09'0 0.0
2018-Jun-09 03:30N 54°22' E 010°09'0 0.0
2018-Jun-09 02:57N 54°22' E 010°09'0 0.0
2018-Jun-09 02:30N 54°22' E 010°09'0 0.0
2018-Jun-09 02:00N 54°22' E 010°09'0 0.0
2018-Jun-09 01:21N 54°22' E 010°09'0 0.0
2018-Jun-09 00:57N 54°22' E 010°09'0 0.0
2018-Jun-09 00:21N 54°22' E 010°09'0 0.0
2018-Jun-09 00:00N 54°22' E 010°09'0 0.0
2018-Jun-08 23:30N 54°22' E 010°09'0 0.0
2018-Jun-08 22:51N 54°22' E 010°09'0 0.0
2018-Jun-08 22:27N 54°22' E 010°09'0 0.0
2018-Jun-08 09:15N 54°22' E 010°09'0 0.0
2018-Jun-08 04:36N 54°22' E 010°09'0 0.0
2018-Jun-08 04:21N 54°22' E 010°09'0 0.0
2018-Jun-08 04:00N 54°22' E 010°09'0 0.0
2018-Jun-08 03:30N 54°22' E 010°09'0 0.0
2018-Jun-08 03:00N 54°22' E 010°09'0 0.0
2018-Jun-08 02:15N 54°22' E 010°09'0 0.0
2018-Jun-08 01:57N 54°22' E 010°09'0 0.0
2018-Jun-08 00:30N 54°22' E 010°09'0 0.0
2018-Jun-08 00:00N 54°22' E 010°09'0 0.0
2018-Jun-07 23:27N 54°22' E 010°09'0 0.0
2018-Jun-07 22:57N 54°22' E 010°09'0 0.0
2018-Jun-07 22:00N 54°22' E 010°09'  

Dump ship's entire track history